sensor_id;sensor_type;location;lat;lon;timestamp;pressure;altitude;pressure_sealevel;temperature;humidity
47274;BME280;33007;49.082;19.306;2022-07-29T19:07:13;96241.06;;;19.28;100.00
47274;BME280;33007;49.082;19.306;2022-07-29T19:09:42;96245.47;;;19.56;100.00
47274;BME280;33007;49.082;19.306;2022-07-29T19:12:07;96240.66;;;19.62;100.00
47274;BME280;33007;49.082;19.306;2022-07-29T19:14:33;96252.25;;;19.55;100.00
47274;BME280;33007;49.082;19.306;2022-07-29T19:16:58;96257.41;;;19.64;99.51
47274;BME280;33007;49.082;19.306;2022-07-29T19:19:24;96245.25;;;19.54;100.00
47274;BME280;33007;49.082;19.306;2022-07-29T19:21:50;96247.09;;;19.46;100.00
47274;BME280;33007;49.082;19.306;2022-07-29T19:24:15;96233.63;;;19.42;100.00
47274;BME280;33007;49.082;19.306;2022-07-29T19:26:41;96245.69;;;19.39;100.00
47274;BME280;33007;49.082;19.306;2022-07-29T19:29:11;96236.81;;;19.27;100.00
47274;BME280;33007;49.082;19.306;2022-07-29T19:31:38;96232.41;;;19.19;100.00
47274;BME280;33007;49.082;19.306;2022-07-29T19:34:04;96239.13;;;19.23;100.00
47274;BME280;33007;49.082;19.306;2022-07-29T19:36:29;96235.09;;;19.24;100.00
47274;BME280;33007;49.082;19.306;2022-07-29T19:38:55;96230.22;;;19.11;100.00
47274;BME280;33007;49.082;19.306;2022-07-29T19:41:21;96239.75;;;19.10;100.00
47274;BME280;33007;49.082;19.306;2022-07-29T19:43:46;96227.66;;;18.95;100.00
47274;BME280;33007;49.082;19.306;2022-07-29T19:46:12;96242.84;;;19.01;100.00
47274;BME280;33007;49.082;19.306;2022-07-29T19:48:38;96209.25;;;18.84;100.00
47274;BME280;33007;49.082;19.306;2022-07-29T19:51:04;96191.94;;;18.65;100.00
47274;BME280;33007;49.082;19.306;2022-07-29T19:53:29;96230.78;;;18.86;100.00
47274;BME280;33007;49.082;19.306;2022-07-29T19:55:55;96251.69;;;18.94;100.00
47274;BME280;33007;49.082;19.306;2022-07-29T19:58:26;96251.56;;;19.05;100.00
47274;BME280;33007;49.082;19.306;2022-07-29T20:00:51;96241.34;;;19.00;100.00
47274;BME280;33007;49.082;19.306;2022-07-29T20:03:17;96236.22;;;18.91;100.00
47274;BME280;33007;49.082;19.306;2022-07-29T20:05:42;96282.41;;;18.98;100.00
47274;BME280;33007;49.082;19.306;2022-07-29T20:08:08;96281.31;;;18.82;100.00
47274;BME280;33007;49.082;19.306;2022-07-29T20:10:33;96269.28;;;18.86;100.00
47274;BME280;33007;49.082;19.306;2022-07-29T20:12:59;96258.56;;;18.82;100.00
47274;BME280;33007;49.082;19.306;2022-07-29T20:15:24;96294.38;;;19.01;100.00
47274;BME280;33007;49.082;19.306;2022-07-29T20:17:50;96275.84;;;19.01;100.00
47274;BME280;33007;49.082;19.306;2022-07-29T20:20:16;96245.84;;;19.03;100.00
47274;BME280;33007;49.082;19.306;2022-07-29T20:22:41;96244.69;;;19.18;99.90
47274;BME280;33007;49.082;19.306;2022-07-29T20:25:08;96239.25;;;18.88;100.00
47274;BME280;33007;49.082;19.306;2022-07-29T20:27:39;96261.88;;;19.24;100.00
47274;BME280;33007;49.082;19.306;2022-07-29T20:30:05;96230.53;;;19.08;100.00
47274;BME280;33007;49.082;19.306;2022-07-29T20:32:32;96248.75;;;19.11;100.00
47274;BME280;33007;49.082;19.306;2022-07-29T20:34:57;96238.16;;;18.96;100.00
47274;BME280;33007;49.082;19.306;2022-07-29T20:37:23;96246.69;;;18.93;100.00
47274;BME280;33007;49.082;19.306;2022-07-29T20:39:48;96254.84;;;19.04;100.00
47274;BME280;33007;49.082;19.306;2022-07-29T20:42:14;96244.13;;;18.76;100.00
47274;BME280;33007;49.082;19.306;2022-07-29T20:44:41;96253.69;;;18.94;100.00
47274;BME280;33007;49.082;19.306;2022-07-29T20:47:07;96222.25;;;18.59;100.00
47274;BME280;33007;49.082;19.306;2022-07-29T20:49:32;96234.69;;;18.66;100.00
47274;BME280;33007;49.082;19.306;2022-07-29T20:51:58;96255.28;;;18.83;100.00
47274;BME280;33007;49.082;19.306;2022-07-29T20:54:24;96249.97;;;18.91;100.00
47274;BME280;33007;49.082;19.306;2022-07-29T20:56:49;96252.59;;;19.02;100.00
47274;BME280;33007;49.082;19.306;2022-07-29T20:59:15;96232.25;;;18.87;100.00
47274;BME280;33007;49.082;19.306;2022-07-29T21:01:41;96227.03;;;18.53;100.00
47274;BME280;33007;49.082;19.306;2022-07-29T21:04:06;96254.66;;;18.72;100.00
47274;BME280;33007;49.082;19.306;2022-07-29T21:06:31;96199.84;;;18.49;100.00
47274;BME280;33007;49.082;19.306;2022-07-29T21:08:58;96246.75;;;18.87;100.00
47274;BME280;33007;49.082;19.306;2022-07-29T21:11:25;96231.94;;;18.66;100.00
47274;BME280;33007;49.082;19.306;2022-07-29T21:13:51;96253.66;;;18.69;100.00
47274;BME280;33007;49.082;19.306;2022-07-29T21:16:17;96229.84;;;18.47;100.00
47274;BME280;33007;49.082;19.306;2022-07-29T21:18:45;96257.88;;;18.76;100.00
47274;BME280;33007;49.082;19.306;2022-07-29T21:21:15;96200.19;;;18.65;100.00
47274;BME280;33007;49.082;19.306;2022-07-29T21:23:42;96241.13;;;18.98;100.00
47274;BME280;33007;49.082;19.306;2022-07-29T21:26:08;96236.31;;;18.80;100.00
47274;BME280;33007;49.082;19.306;2022-07-29T21:28:34;96213.81;;;18.51;100.00
47274;BME280;33007;49.082;19.306;2022-07-29T21:33:34;96216.66;;;18.40;100.00
47274;BME280;33007;49.082;19.306;2022-07-29T21:36:01;96237.06;;;18.50;100.00
47274;BME280;33007;49.082;19.306;2022-07-29T21:38:27;96262.91;;;18.72;100.00
47274;BME280;33007;49.082;19.306;2022-07-29T21:40:52;96263.13;;;18.74;100.00
47274;BME280;33007;49.082;19.306;2022-07-29T21:43:20;96223.88;;;18.43;100.00
47274;BME280;33007;49.082;19.306;2022-07-29T21:45:45;96242.78;;;18.52;100.00
47274;BME280;33007;49.082;19.306;2022-07-29T21:48:18;96248.25;;;18.58;100.00
47274;BME280;33007;49.082;19.306;2022-07-29T21:50:45;96279.31;;;18.83;100.00
47274;BME280;33007;49.082;19.306;2022-07-29T21:53:11;96250.53;;;18.54;100.00
47274;BME280;33007;49.082;19.306;2022-07-29T21:55:37;96276.44;;;18.64;100.00
47274;BME280;33007;49.082;19.306;2022-07-29T21:58:04;96259.75;;;18.56;100.00
47274;BME280;33007;49.082;19.306;2022-07-29T22:00:30;96239.88;;;18.45;100.00
47274;BME280;33007;49.082;19.306;2022-07-29T22:02:58;96234.38;;;18.45;100.00
47274;BME280;33007;49.082;19.306;2022-07-29T22:05:25;96242.34;;;18.48;100.00
47274;BME280;33007;49.082;19.306;2022-07-29T22:07:51;96239.16;;;18.39;100.00
47274;BME280;33007;49.082;19.306;2022-07-29T22:10:16;96216.81;;;18.23;100.00
47274;BME280;33007;49.082;19.306;2022-07-29T22:12:42;96215.06;;;18.20;100.00
47274;BME280;33007;49.082;19.306;2022-07-29T22:15:08;96223.94;;;18.38;100.00
47274;BME280;33007;49.082;19.306;2022-07-29T22:17:33;96222.44;;;18.37;100.00
47274;BME280;33007;49.082;19.306;2022-07-29T22:19:59;96233.31;;;18.48;100.00
47274;BME280;33007;49.082;19.306;2022-07-29T22:22:25;96204.06;;;18.20;100.00
47274;BME280;33007;49.082;19.306;2022-07-29T22:24:50;96214.69;;;18.35;100.00
47274;BME280;33007;49.082;19.306;2022-07-29T22:27:16;96168.41;;;18.15;100.00
47274;BME280;33007;49.082;19.306;2022-07-29T22:29:42;96164.72;;;18.06;100.00
47274;BME280;33007;49.082;19.306;2022-07-29T22:32:07;96221.41;;;18.40;100.00
47274;BME280;33007;49.082;19.306;2022-07-29T22:34:33;96196.56;;;18.21;100.00
47274;BME280;33007;49.082;19.306;2022-07-29T22:36:59;96213.47;;;18.30;100.00
47274;BME280;33007;49.082;19.306;2022-07-29T22:39:26;96191.88;;;18.16;100.00
47274;BME280;33007;49.082;19.306;2022-07-29T22:41:51;96169.69;;;18.08;100.00
47274;BME280;33007;49.082;19.306;2022-07-29T22:44:17;96184.28;;;18.27;100.00
47274;BME280;33007;49.082;19.306;2022-07-29T22:46:43;96197.69;;;18.37;100.00
47274;BME280;33007;49.082;19.306;2022-07-29T22:49:08;96151.72;;;18.07;100.00
47274;BME280;33007;49.082;19.306;2022-07-29T22:51:34;96141.28;;;18.00;100.00
47274;BME280;33007;49.082;19.306;2022-07-29T22:54:00;96160.16;;;18.15;100.00
47274;BME280;33007;49.082;19.306;2022-07-29T22:56:26;96179.53;;;18.28;100.00
47274;BME280;33007;49.082;19.306;2022-07-29T22:58:51;96154.91;;;18.17;100.00
47274;BME280;33007;49.082;19.306;2022-07-29T23:01:20;96189.69;;;18.39;100.00
47274;BME280;33007;49.082;19.306;2022-07-29T23:03:45;96144.41;;;18.15;100.00
47274;BME280;33007;49.082;19.306;2022-07-29T23:06:11;96144.50;;;18.04;100.00
47274;BME280;33007;49.082;19.306;2022-07-29T23:08:36;96141.91;;;18.17;100.00
47274;BME280;33007;49.082;19.306;2022-07-29T23:11:02;96148.84;;;18.24;100.00
47274;BME280;33007;49.082;19.306;2022-07-29T23:13:28;96145.41;;;18.18;100.00
47274;BME280;33007;49.082;19.306;2022-07-29T23:15:53;96119.03;;;18.03;100.00
47274;BME280;33007;49.082;19.306;2022-07-29T23:18:19;96126.22;;;18.12;100.00
47274;BME280;33007;49.082;19.306;2022-07-29T23:20:44;96152.75;;;18.34;100.00
47274;BME280;33007;49.082;19.306;2022-07-29T23:23:10;96161.22;;;18.36;100.00
47274;BME280;33007;49.082;19.306;2022-07-29T23:25:36;96156.56;;;18.25;100.00
47274;BME280;33007;49.082;19.306;2022-07-29T23:28:01;96099.31;;;17.75;100.00
47274;BME280;33007;49.082;19.306;2022-07-29T23:30:27;96134.31;;;17.99;100.00
47274;BME280;33007;49.082;19.306;2022-07-29T23:32:54;96155.19;;;18.13;100.00
47274;BME280;33007;49.082;19.306;2022-07-29T23:35:20;96164.91;;;18.14;100.00
47274;BME280;33007;49.082;19.306;2022-07-29T23:37:46;96146.97;;;18.08;100.00
47274;BME280;33007;49.082;19.306;2022-07-29T23:40:12;96122.84;;;17.95;100.00
47274;BME280;33007;49.082;19.306;2022-07-29T23:42:39;96157.59;;;18.22;100.00
47274;BME280;33007;49.082;19.306;2022-07-29T23:45:05;96138.13;;;18.20;100.00
47274;BME280;33007;49.082;19.306;2022-07-29T23:47:30;96133.41;;;18.15;100.00
47274;BME280;33007;49.082;19.306;2022-07-29T23:49:56;96131.25;;;18.08;100.00
47274;BME280;33007;49.082;19.306;2022-07-29T23:52:22;96148.56;;;18.27;100.00
47274;BME280;33007;49.082;19.306;2022-07-29T23:54:47;96154.13;;;18.22;100.00
47274;BME280;33007;49.082;19.306;2022-07-29T23:57:13;96126.16;;;18.18;100.00
47274;BME280;33007;49.082;19.306;2022-07-29T23:59:38;96120.88;;;18.20;100.00
